sensor_id;sensor_type;location;lat;lon;timestamp;P1;durP1;ratioP1;P2;durP2;ratioP2
27558;SDS011;15002;52.028;5.670;2022-10-31T00:01:14;15.65;;;8.68;;
27558;SDS011;15002;52.028;5.670;2022-10-31T00:03:48;13.75;;;8.50;;
27558;SDS011;15002;52.028;5.670;2022-10-31T00:06:13;13.38;;;8.27;;
27558;SDS011;15002;52.028;5.670;2022-10-31T00:08:40;15.73;;;8.63;;
27558;SDS011;15002;52.028;5.670;2022-10-31T00:11:09;15.38;;;8.60;;
27558;SDS011;15002;52.028;5.670;2022-10-31T00:13:35;15.73;;;8.68;;
27558;SDS011;15002;52.028;5.670;2022-10-31T00:16:00;14.23;;;8.32;;
27558;SDS011;15002;52.028;5.670;2022-10-31T00:18:26;13.43;;;7.80;;
27558;SDS011;15002;52.028;5.670;2022-10-31T00:20:59;13.40;;;9.38;;
27558;SDS011;15002;52.028;5.670;2022-10-31T00:23:28;19.30;;;8.18;;
27558;SDS011;15002;52.028;5.670;2022-10-31T00:25:54;15.48;;;8.23;;
27558;SDS011;15002;52.028;5.670;2022-10-31T00:28:24;16.98;;;8.50;;
27558;SDS011;15002;52.028;5.670;2022-10-31T00:30:50;13.13;;;8.63;;
27558;SDS011;15002;52.028;5.670;2022-10-31T00:33:15;14.18;;;8.13;;
27558;SDS011;15002;52.028;5.670;2022-10-31T00:35:41;16.13;;;9.27;;
27558;SDS011;15002;52.028;5.670;2022-10-31T00:38:06;18.70;;;9.77;;
27558;SDS011;15002;52.028;5.670;2022-10-31T00:40:32;12.73;;;9.18;;
27558;SDS011;15002;52.028;5.670;2022-10-31T00:42:58;15.02;;;9.32;;
27558;SDS011;15002;52.028;5.670;2022-10-31T00:45:23;12.85;;;8.82;;
27558;SDS011;15002;52.028;5.670;2022-10-31T00:47:49;13.90;;;9.25;;
27558;SDS011;15002;52.028;5.670;2022-10-31T00:50:15;11.18;;;8.32;;
27558;SDS011;15002;52.028;5.670;2022-10-31T00:52:40;16.40;;;10.38;;
27558;SDS011;15002;52.028;5.670;2022-10-31T00:55:06;16.85;;;8.70;;
27558;SDS011;15002;52.028;5.670;2022-10-31T00:57:32;16.60;;;9.30;;
27558;SDS011;15002;52.028;5.670;2022-10-31T00:59:57;19.70;;;9.98;;
27558;SDS011;15002;52.028;5.670;2022-10-31T01:02:23;15.30;;;9.20;;
27558;SDS011;15002;52.028;5.670;2022-10-31T01:04:49;14.98;;;9.10;;
27558;SDS011;15002;52.028;5.670;2022-10-31T01:07:14;14.73;;;9.80;;
27558;SDS011;15002;52.028;5.670;2022-10-31T01:09:40;15.85;;;9.02;;
27558;SDS011;15002;52.028;5.670;2022-10-31T01:12:06;15.80;;;9.70;;
27558;SDS011;15002;52.028;5.670;2022-10-31T01:14:32;16.40;;;10.05;;
27558;SDS011;15002;52.028;5.670;2022-10-31T01:16:57;18.90;;;9.80;;
27558;SDS011;15002;52.028;5.670;2022-10-31T01:19:23;17.70;;;10.40;;
27558;SDS011;15002;52.028;5.670;2022-10-31T01:21:49;16.02;;;9.68;;
27558;SDS011;15002;52.028;5.670;2022-10-31T01:24:14;18.90;;;10.30;;
27558;SDS011;15002;52.028;5.670;2022-10-31T01:26:40;15.73;;;9.63;;
27558;SDS011;15002;52.028;5.670;2022-10-31T01:29:07;11.82;;;9.13;;
27558;SDS011;15002;52.028;5.670;2022-10-31T01:31:36;15.68;;;9.48;;
27558;SDS011;15002;52.028;5.670;2022-10-31T01:34:04;15.00;;;10.57;;
27558;SDS011;15002;52.028;5.670;2022-10-31T01:36:31;19.63;;;9.57;;
27558;SDS011;15002;52.028;5.670;2022-10-31T01:39:03;18.98;;;9.70;;
27558;SDS011;15002;52.028;5.670;2022-10-31T01:41:31;16.35;;;10.02;;
27558;SDS011;15002;52.028;5.670;2022-10-31T01:44:03;14.60;;;10.77;;
27558;SDS011;15002;52.028;5.670;2022-10-31T01:46:55;18.08;;;10.55;;
27558;SDS011;15002;52.028;5.670;2022-10-31T01:49:30;14.98;;;9.85;;
27558;SDS011;15002;52.028;5.670;2022-10-31T01:52:10;16.45;;;9.95;;
27558;SDS011;15002;52.028;5.670;2022-10-31T01:54:45;18.63;;;10.05;;
27558;SDS011;15002;52.028;5.670;2022-10-31T01:57:15;14.15;;;9.85;;
27558;SDS011;15002;52.028;5.670;2022-10-31T01:59:44;15.82;;;9.52;;
27558;SDS011;15002;52.028;5.670;2022-10-31T02:02:15;17.42;;;10.05;;
27558;SDS011;15002;52.028;5.670;2022-10-31T02:04:42;16.95;;;10.15;;
27558;SDS011;15002;52.028;5.670;2022-10-31T02:07:13;14.27;;;9.90;;
27558;SDS011;15002;52.028;5.670;2022-10-31T02:09:43;16.75;;;9.52;;
27558;SDS011;15002;52.028;5.670;2022-10-31T02:12:11;17.08;;;9.75;;
27558;SDS011;15002;52.028;5.670;2022-10-31T02:14:38;14.70;;;9.38;;
27558;SDS011;15002;52.028;5.670;2022-10-31T02:17:04;15.32;;;9.38;;
27558;SDS011;15002;52.028;5.670;2022-10-31T02:30:20;15.85;;;9.38;;
27558;SDS011;15002;52.028;5.670;2022-10-31T02:35:40;18.97;;;10.03;;
27558;SDS011;15002;52.028;5.670;2022-10-31T02:43:28;13.77;;;9.37;;
27558;SDS011;15002;52.028;5.670;2022-10-31T02:49:00;18.10;;;9.52;;
27558;SDS011;15002;52.028;5.670;2022-10-31T02:51:32;15.05;;;9.52;;
27558;SDS011;15002;52.028;5.670;2022-10-31T02:53:58;14.23;;;10.05;;
27558;SDS011;15002;52.028;5.670;2022-10-31T02:56:24;14.80;;;8.43;;
27558;SDS011;15002;52.028;5.670;2022-10-31T02:58:51;15.48;;;9.13;;
27558;SDS011;15002;52.028;5.670;2022-10-31T03:01:22;13.27;;;8.38;;
27558;SDS011;15002;52.028;5.670;2022-10-31T03:07:20;13.93;;;9.48;;
27558;SDS011;15002;52.028;5.670;2022-10-31T03:15:40;15.73;;;10.07;;
27558;SDS011;15002;52.028;5.670;2022-10-31T03:21:05;14.45;;;9.00;;
27558;SDS011;15002;52.028;5.670;2022-10-31T03:23:36;14.75;;;9.48;;
27558;SDS011;15002;52.028;5.670;2022-10-31T03:26:05;18.15;;;9.77;;
27558;SDS011;15002;52.028;5.670;2022-10-31T03:28:52;17.52;;;10.20;;
27558;SDS011;15002;52.028;5.670;2022-10-31T03:31:33;16.83;;;9.95;;
27558;SDS011;15002;52.028;5.670;2022-10-31T03:34:03;16.00;;;10.02;;
27558;SDS011;15002;52.028;5.670;2022-10-31T03:36:31;15.85;;;10.77;;
27558;SDS011;15002;52.028;5.670;2022-10-31T03:39:01;16.23;;;9.95;;
27558;SDS011;15002;52.028;5.670;2022-10-31T03:41:30;17.88;;;10.27;;
27558;SDS011;15002;52.028;5.670;2022-10-31T03:44:00;15.97;;;10.80;;
27558;SDS011;15002;52.028;5.670;2022-10-31T03:46:29;16.25;;;11.00;;
27558;SDS011;15002;52.028;5.670;2022-10-31T03:48:54;18.30;;;10.65;;
27558;SDS011;15002;52.028;5.670;2022-10-31T03:51:29;17.85;;;10.65;;
27558;SDS011;15002;52.028;5.670;2022-10-31T03:54:06;16.55;;;10.60;;
27558;SDS011;15002;52.028;5.670;2022-10-31T03:56:42;18.35;;;10.32;;
27558;SDS011;15002;52.028;5.670;2022-10-31T03:59:15;17.90;;;11.40;;
27558;SDS011;15002;52.028;5.670;2022-10-31T04:01:46;18.67;;;10.80;;
27558;SDS011;15002;52.028;5.670;2022-10-31T04:04:15;14.27;;;10.85;;
27558;SDS011;15002;52.028;5.670;2022-10-31T04:06:42;20.42;;;12.02;;
27558;SDS011;15002;52.028;5.670;2022-10-31T04:09:11;16.80;;;10.52;;
27558;SDS011;15002;52.028;5.670;2022-10-31T04:11:40;18.05;;;11.40;;
27558;SDS011;15002;52.028;5.670;2022-10-31T04:14:10;15.95;;;11.10;;
27558;SDS011;15002;52.028;5.670;2022-10-31T04:16:38;16.73;;;11.05;;
27558;SDS011;15002;52.028;5.670;2022-10-31T04:19:06;17.73;;;11.18;;
27558;SDS011;15002;52.028;5.670;2022-10-31T04:21:32;20.77;;;12.38;;
27558;SDS011;15002;52.028;5.670;2022-10-31T04:23:58;23.83;;;12.75;;
27558;SDS011;15002;52.028;5.670;2022-10-31T04:26:23;21.02;;;13.00;;
27558;SDS011;15002;52.028;5.670;2022-10-31T04:28:49;19.75;;;12.82;;
27558;SDS011;15002;52.028;5.670;2022-10-31T04:31:15;19.75;;;12.85;;
27558;SDS011;15002;52.028;5.670;2022-10-31T04:33:41;19.42;;;12.73;;
27558;SDS011;15002;52.028;5.670;2022-10-31T04:36:07;20.52;;;13.63;;
27558;SDS011;15002;52.028;5.670;2022-10-31T04:38:33;24.02;;;14.45;;
27558;SDS011;15002;52.028;5.670;2022-10-31T04:40:58;18.35;;;12.68;;
27558;SDS011;15002;52.028;5.670;2022-10-31T04:43:24;20.13;;;13.00;;
27558;SDS011;15002;52.028;5.670;2022-10-31T04:45:50;23.60;;;14.15;;
27558;SDS011;15002;52.028;5.670;2022-10-31T04:48:15;23.73;;;15.02;;
27558;SDS011;15002;52.028;5.670;2022-10-31T04:50:41;25.23;;;15.38;;
27558;SDS011;15002;52.028;5.670;2022-10-31T04:53:07;26.63;;;14.95;;
27558;SDS011;15002;52.028;5.670;2022-10-31T04:55:33;23.45;;;14.75;;
27558;SDS011;15002;52.028;5.670;2022-10-31T04:58:00;25.15;;;15.40;;
27558;SDS011;15002;52.028;5.670;2022-10-31T05:00:26;23.88;;;14.27;;
27558;SDS011;15002;52.028;5.670;2022-10-31T05:02:52;24.17;;;15.15;;
27558;SDS011;15002;52.028;5.670;2022-10-31T05:05:20;28.10;;;15.52;;
27558;SDS011;15002;52.028;5.670;2022-10-31T05:07:49;23.27;;;16.38;;
27558;SDS011;15002;52.028;5.670;2022-10-31T05:10:20;24.98;;;15.45;;
27558;SDS011;15002;52.028;5.670;2022-10-31T05:12:51;24.50;;;15.88;;
27558;SDS011;15002;52.028;5.670;2022-10-31T05:15:21;28.98;;;16.23;;
27558;SDS011;15002;52.028;5.670;2022-10-31T05:17:48;29.08;;;16.20;;
27558;SDS011;15002;52.028;5.670;2022-10-31T05:20:15;32.28;;;18.40;;
27558;SDS011;15002;52.028;5.670;2022-10-31T05:22:42;30.88;;;18.90;;
27558;SDS011;15002;52.028;5.670;2022-10-31T05:25:09;34.72;;;19.50;;
27558;SDS011;15002;52.028;5.670;2022-10-31T05:27:37;31.27;;;19.30;;
27558;SDS011;15002;52.028;5.670;2022-10-31T05:30:07;34.35;;;18.90;;
27558;SDS011;15002;52.028;5.670;2022-10-31T05:32:40;31.30;;;19.75;;
27558;SDS011;15002;52.028;5.670;2022-10-31T05:35:11;28.38;;;19.35;;
27558;SDS011;15002;52.028;5.670;2022-10-31T05:37:38;35.72;;;20.70;;
27558;SDS011;15002;52.028;5.670;2022-10-31T05:40:05;29.48;;;20.08;;
27558;SDS011;15002;52.028;5.670;2022-10-31T05:42:32;42.50;;;21.52;;
27558;SDS011;15002;52.028;5.670;2022-10-31T05:44:58;31.00;;;20.38;;
27558;SDS011;15002;52.028;5.670;2022-10-31T05:47:24;36.55;;;20.63;;
27558;SDS011;15002;52.028;5.670;2022-10-31T05:49:49;35.80;;;21.38;;
27558;SDS011;15002;52.028;5.670;2022-10-31T05:52:15;36.05;;;21.30;;
27558;SDS011;15002;52.028;5.670;2022-10-31T05:54:41;33.15;;;20.05;;
27558;SDS011;15002;52.028;5.670;2022-10-31T05:57:07;28.40;;;20.10;;
27558;SDS011;15002;52.028;5.670;2022-10-31T05:59:32;30.58;;;19.17;;
27558;SDS011;15002;52.028;5.670;2022-10-31T06:01:58;29.88;;;19.48;;
27558;SDS011;15002;52.028;5.670;2022-10-31T06:04:23;33.72;;;20.05;;
27558;SDS011;15002;52.028;5.670;2022-10-31T06:06:49;30.70;;;20.70;;
27558;SDS011;15002;52.028;5.670;2022-10-31T06:09:15;34.75;;;21.63;;
27558;SDS011;15002;52.028;5.670;2022-10-31T06:11:40;35.80;;;20.23;;
27558;SDS011;15002;52.028;5.670;2022-10-31T06:14:06;36.30;;;20.75;;
27558;SDS011;15002;52.028;5.670;2022-10-31T06:16:32;32.33;;;20.17;;
27558;SDS011;15002;52.028;5.670;2022-10-31T06:18:57;36.25;;;20.33;;
27558;SDS011;15002;52.028;5.670;2022-10-31T06:21:23;37.13;;;20.92;;
27558;SDS011;15002;52.028;5.670;2022-10-31T06:23:49;35.40;;;19.70;;
27558;SDS011;15002;52.028;5.670;2022-10-31T06:26:15;33.95;;;19.73;;
27558;SDS011;15002;52.028;5.670;2022-10-31T06:28:40;33.63;;;19.98;;
27558;SDS011;15002;52.028;5.670;2022-10-31T06:31:06;35.40;;;20.17;;
27558;SDS011;15002;52.028;5.670;2022-10-31T06:33:32;33.45;;;21.00;;
27558;SDS011;15002;52.028;5.670;2022-10-31T06:35:59;35.03;;;20.08;;
27558;SDS011;15002;52.028;5.670;2022-10-31T06:38:27;33.67;;;20.13;;
27558;SDS011;15002;52.028;5.670;2022-10-31T06:40:53;33.28;;;18.33;;
27558;SDS011;15002;52.028;5.670;2022-10-31T06:43:20;27.73;;;17.80;;
27558;SDS011;15002;52.028;5.670;2022-10-31T06:45:46;29.48;;;18.48;;
27558;SDS011;15002;52.028;5.670;2022-10-31T06:48:12;30.25;;;18.60;;
27558;SDS011;15002;52.028;5.670;2022-10-31T06:50:38;36.08;;;18.35;;
27558;SDS011;15002;52.028;5.670;2022-10-31T06:53:04;36.72;;;19.15;;
27558;SDS011;15002;52.028;5.670;2022-10-31T06:55:30;30.83;;;17.58;;
27558;SDS011;15002;52.028;5.670;2022-10-31T06:57:57;45.00;;;18.98;;
27558;SDS011;15002;52.028;5.670;2022-10-31T07:00:24;33.50;;;19.38;;
27558;SDS011;15002;52.028;5.670;2022-10-31T07:02:54;37.45;;;19.23;;
27558;SDS011;15002;52.028;5.670;2022-10-31T07:05:20;38.40;;;18.80;;
27558;SDS011;15002;52.028;5.670;2022-10-31T07:07:46;32.42;;;18.65;;
27558;SDS011;15002;52.028;5.670;2022-10-31T07:10:11;34.65;;;19.15;;
27558;SDS011;15002;52.028;5.670;2022-10-31T07:12:37;30.60;;;18.33;;
27558;SDS011;15002;52.028;5.670;2022-10-31T07:15:03;40.83;;;19.10;;
27558;SDS011;15002;52.028;5.670;2022-10-31T07:17:29;31.80;;;20.13;;
27558;SDS011;15002;52.028;5.670;2022-10-31T07:19:55;32.70;;;19.33;;
27558;SDS011;15002;52.028;5.670;2022-10-31T07:22:21;34.85;;;20.75;;
27558;SDS011;15002;52.028;5.670;2022-10-31T07:24:46;35.47;;;19.77;;
27558;SDS011;15002;52.028;5.670;2022-10-31T07:27:12;37.38;;;21.10;;
27558;SDS011;15002;52.028;5.670;2022-10-31T07:29:38;44.83;;;21.25;;
27558;SDS011;15002;52.028;5.670;2022-10-31T07:32:03;36.20;;;20.75;;
27558;SDS011;15002;52.028;5.670;2022-10-31T07:34:29;35.45;;;20.20;;
27558;SDS011;15002;52.028;5.670;2022-10-31T07:37:01;32.80;;;19.80;;
27558;SDS011;15002;52.028;5.670;2022-10-31T07:39:27;39.28;;;21.63;;
27558;SDS011;15002;52.028;5.670;2022-10-31T07:41:52;35.83;;;20.58;;
27558;SDS011;15002;52.028;5.670;2022-10-31T07:44:18;40.17;;;21.27;;
27558;SDS011;15002;52.028;5.670;2022-10-31T07:46:43;36.10;;;20.17;;
27558;SDS011;15002;52.028;5.670;2022-10-31T07:49:09;35.28;;;19.67;;
27558;SDS011;15002;52.028;5.670;2022-10-31T07:51:35;33.30;;;18.95;;
27558;SDS011;15002;52.028;5.670;2022-10-31T07:54:00;41.83;;;21.48;;
27558;SDS011;15002;52.028;5.670;2022-10-31T07:56:32;42.70;;;20.35;;
27558;SDS011;15002;52.028;5.670;2022-10-31T07:58:58;36.80;;;21.30;;
27558;SDS011;15002;52.028;5.670;2022-10-31T08:01:23;34.75;;;20.90;;
27558;SDS011;15002;52.028;5.670;2022-10-31T08:03:49;37.03;;;20.45;;
27558;SDS011;15002;52.028;5.670;2022-10-31T08:06:14;33.83;;;20.50;;
27558;SDS011;15002;52.028;5.670;2022-10-31T08:08:40;37.10;;;20.23;;
27558;SDS011;15002;52.028;5.670;2022-10-31T08:11:06;44.60;;;20.55;;
27558;SDS011;15002;52.028;5.670;2022-10-31T08:13:31;34.15;;;20.17;;
27558;SDS011;15002;52.028;5.670;2022-10-31T08:15:57;34.13;;;20.45;;
27558;SDS011;15002;52.028;5.670;2022-10-31T08:20:54;35.97;;;20.13;;
27558;SDS011;15002;52.028;5.670;2022-10-31T08:23:20;44.50;;;20.35;;
27558;SDS011;15002;52.028;5.670;2022-10-31T08:25:46;39.47;;;19.95;;
27558;SDS011;15002;52.028;5.670;2022-10-31T08:28:14;40.20;;;18.20;;
27558;SDS011;15002;52.028;5.670;2022-10-31T08:30:40;27.48;;;18.00;;
27558;SDS011;15002;52.028;5.670;2022-10-31T08:33:14;24.05;;;16.63;;
27558;SDS011;15002;52.028;5.670;2022-10-31T08:35:41;30.50;;;17.00;;
27558;SDS011;15002;52.028;5.670;2022-10-31T08:38:08;32.20;;;17.88;;
27558;SDS011;15002;52.028;5.670;2022-10-31T08:40:35;29.35;;;17.13;;
27558;SDS011;15002;52.028;5.670;2022-10-31T08:43:05;30.55;;;15.93;;
27558;SDS011;15002;52.028;5.670;2022-10-31T08:45:35;26.05;;;16.83;;
27558;SDS011;15002;52.028;5.670;2022-10-31T08:48:02;24.92;;;15.00;;
27558;SDS011;15002;52.028;5.670;2022-10-31T08:50:30;23.05;;;14.45;;
27558;SDS011;15002;52.028;5.670;2022-10-31T08:53:04;19.73;;;13.63;;
27558;SDS011;15002;52.028;5.670;2022-10-31T08:55:35;26.27;;;13.75;;
27558;SDS011;15002;52.028;5.670;2022-10-31T08:58:02;30.20;;;12.73;;
27558;SDS011;15002;52.028;5.670;2022-10-31T09:00:29;28.75;;;13.13;;
27558;SDS011;15002;52.028;5.670;2022-10-31T09:02:56;19.27;;;11.52;;
27558;SDS011;15002;52.028;5.670;2022-10-31T09:05:26;16.42;;;9.73;;
27558;SDS011;15002;52.028;5.670;2022-10-31T09:07:56;15.45;;;10.25;;
27558;SDS011;15002;52.028;5.670;2022-10-31T09:10:23;15.88;;;10.20;;
27558;SDS011;15002;52.028;5.670;2022-10-31T09:12:59;16.70;;;10.10;;
27558;SDS011;15002;52.028;5.670;2022-10-31T09:15:29;20.63;;;10.90;;
27558;SDS011;15002;52.028;5.670;2022-10-31T09:17:55;13.18;;;10.23;;
27558;SDS011;15002;52.028;5.670;2022-10-31T09:20:21;17.60;;;9.85;;
27558;SDS011;15002;52.028;5.670;2022-10-31T09:22:47;17.33;;;10.10;;
27558;SDS011;15002;52.028;5.670;2022-10-31T09:25:19;21.05;;;10.73;;
27558;SDS011;15002;52.028;5.670;2022-10-31T09:27:45;15.85;;;9.90;;
27558;SDS011;15002;52.028;5.670;2022-10-31T09:30:11;14.63;;;9.13;;
27558;SDS011;15002;52.028;5.670;2022-10-31T09:32:37;12.27;;;9.25;;
27558;SDS011;15002;52.028;5.670;2022-10-31T09:35:02;15.45;;;9.10;;
27558;SDS011;15002;52.028;5.670;2022-10-31T09:37:28;18.33;;;11.10;;
27558;SDS011;15002;52.028;5.670;2022-10-31T09:39:53;16.13;;;9.50;;
27558;SDS011;15002;52.028;5.670;2022-10-31T09:52:32;16.15;;;10.73;;
27558;SDS011;15002;52.028;5.670;2022-10-31T09:57:35;22.38;;;10.20;;
27558;SDS011;15002;52.028;5.670;2022-10-31T10:00:05;16.83;;;10.60;;
27558;SDS011;15002;52.028;5.670;2022-10-31T10:02:34;19.92;;;10.45;;
27558;SDS011;15002;52.028;5.670;2022-10-31T10:05:03;18.75;;;10.63;;
27558;SDS011;15002;52.028;5.670;2022-10-31T10:18:54;19.35;;;11.65;;
27558;SDS011;15002;52.028;5.670;2022-10-31T10:29:50;22.42;;;13.48;;
27558;SDS011;15002;52.028;5.670;2022-10-31T10:32:22;27.65;;;12.75;;
27558;SDS011;15002;52.028;5.670;2022-10-31T10:35:33;28.73;;;13.82;;
27558;SDS011;15002;52.028;5.670;2022-10-31T10:37:40;26.23;;;15.02;;
27558;SDS011;15002;52.028;5.670;2022-10-31T10:43:19;34.15;;;16.02;;
27558;SDS011;15002;52.028;5.670;2022-10-31T10:49:03;27.38;;;15.13;;
27558;SDS011;15002;52.028;5.670;2022-10-31T10:55:16;32.05;;;16.15;;
27558;SDS011;15002;52.028;5.670;2022-10-31T10:59:46;31.13;;;17.50;;
27558;SDS011;15002;52.028;5.670;2022-10-31T11:02:19;29.15;;;16.40;;
27558;SDS011;15002;52.028;5.670;2022-10-31T11:05:12;29.48;;;17.52;;
27558;SDS011;15002;52.028;5.670;2022-10-31T11:07:43;28.35;;;17.45;;
27558;SDS011;15002;52.028;5.670;2022-10-31T11:10:11;30.00;;;17.33;;
27558;SDS011;15002;52.028;5.670;2022-10-31T11:12:42;32.35;;;17.33;;
27558;SDS011;15002;52.028;5.670;2022-10-31T11:15:23;31.15;;;17.73;;
27558;SDS011;15002;52.028;5.670;2022-10-31T11:17:51;31.33;;;15.70;;
27558;SDS011;15002;52.028;5.670;2022-10-31T11:22:46;32.83;;;16.88;;
27558;SDS011;15002;52.028;5.670;2022-10-31T11:27:45;34.58;;;15.85;;
27558;SDS011;15002;52.028;5.670;2022-10-31T11:30:12;30.73;;;15.82;;
27558;SDS011;15002;52.028;5.670;2022-10-31T11:32:49;35.67;;;17.70;;
27558;SDS011;15002;52.028;5.670;2022-10-31T11:35:17;39.42;;;16.70;;
27558;SDS011;15002;52.028;5.670;2022-10-31T11:37:45;32.55;;;17.55;;
27558;SDS011;15002;52.028;5.670;2022-10-31T11:40:17;33.60;;;17.67;;
27558;SDS011;15002;52.028;5.670;2022-10-31T11:42:48;29.58;;;16.35;;
27558;SDS011;15002;52.028;5.670;2022-10-31T11:47:59;33.45;;;18.90;;
27558;SDS011;15002;52.028;5.670;2022-10-31T11:50:28;34.60;;;17.67;;
27558;SDS011;15002;52.028;5.670;2022-10-31T11:53:04;36.83;;;18.95;;
27558;SDS011;15002;52.028;5.670;2022-10-31T11:59:50;41.53;;;19.02;;
27558;SDS011;15002;52.028;5.670;2022-10-31T12:01:47;37.08;;;19.48;;
27558;SDS011;15002;52.028;5.670;2022-10-31T12:04:14;45.47;;;20.30;;
27558;SDS011;15002;52.028;5.670;2022-10-31T12:06:42;38.55;;;19.55;;
27558;SDS011;15002;52.028;5.670;2022-10-31T12:45:02;47.45;;;22.73;;
27558;SDS011;15002;52.028;5.670;2022-10-31T12:59:22;37.33;;;20.17;;
27558;SDS011;15002;52.028;5.670;2022-10-31T13:01:54;50.70;;;21.85;;
27558;SDS011;15002;52.028;5.670;2022-10-31T13:04:41;44.88;;;22.10;;
27558;SDS011;15002;52.028;5.670;2022-10-31T13:07:30;41.33;;;21.13;;
27558;SDS011;15002;52.028;5.670;2022-10-31T13:10:15;37.58;;;19.38;;
27558;SDS011;15002;52.028;5.670;2022-10-31T13:12:49;42.00;;;21.88;;
27558;SDS011;15002;52.028;5.670;2022-10-31T13:15:21;37.28;;;21.08;;
27558;SDS011;15002;52.028;5.670;2022-10-31T13:17:53;41.00;;;20.92;;
27558;SDS011;15002;52.028;5.670;2022-10-31T13:25:48;41.70;;;21.08;;
27558;SDS011;15002;52.028;5.670;2022-10-31T13:31:09;41.25;;;21.05;;
27558;SDS011;15002;52.028;5.670;2022-10-31T13:33:39;41.00;;;21.30;;
27558;SDS011;15002;52.028;5.670;2022-10-31T13:36:35;42.72;;;19.98;;
27558;SDS011;15002;52.028;5.670;2022-10-31T13:41:41;36.63;;;19.55;;
27558;SDS011;15002;52.028;5.670;2022-10-31T13:46:54;40.10;;;20.37;;
27558;SDS011;15002;52.028;5.670;2022-10-31T13:51:53;37.70;;;20.13;;
27558;SDS011;15002;52.028;5.670;2022-10-31T13:54:37;47.35;;;21.13;;
27558;SDS011;15002;52.028;5.670;2022-10-31T13:59:52;37.83;;;20.13;;
27558;SDS011;15002;52.028;5.670;2022-10-31T14:02:43;41.65;;;20.45;;
27558;SDS011;15002;52.028;5.670;2022-10-31T14:07:51;37.00;;;19.52;;
27558;SDS011;15002;52.028;5.670;2022-10-31T14:12:50;41.75;;;20.42;;
27558;SDS011;15002;52.028;5.670;2022-10-31T14:17:54;45.15;;;20.63;;
27558;SDS011;15002;52.028;5.670;2022-10-31T14:22:49;38.22;;;19.25;;
27558;SDS011;15002;52.028;5.670;2022-10-31T14:27:55;43.28;;;19.25;;
27558;SDS011;15002;52.028;5.670;2022-10-31T14:30:22;40.95;;;19.48;;
27558;SDS011;15002;52.028;5.670;2022-10-31T14:32:59;35.63;;;18.17;;
27558;SDS011;15002;52.028;5.670;2022-10-31T14:36:17;37.28;;;18.00;;
27558;SDS011;15002;52.028;5.670;2022-10-31T14:52:25;34.78;;;17.17;;
27558;SDS011;15002;52.028;5.670;2022-10-31T14:54:53;37.03;;;17.38;;
27558;SDS011;15002;52.028;5.670;2022-10-31T14:57:25;33.20;;;18.25;;
27558;SDS011;15002;52.028;5.670;2022-10-31T15:00:12;32.63;;;17.38;;
27558;SDS011;15002;52.028;5.670;2022-10-31T15:03:01;38.33;;;17.63;;
27558;SDS011;15002;52.028;5.670;2022-10-31T15:05:50;32.67;;;18.17;;
27558;SDS011;15002;52.028;5.670;2022-10-31T15:11:09;33.53;;;17.02;;
27558;SDS011;15002;52.028;5.670;2022-10-31T15:13:58;40.95;;;18.10;;
27558;SDS011;15002;52.028;5.670;2022-10-31T15:16:28;37.75;;;17.65;;
27558;SDS011;15002;52.028;5.670;2022-10-31T15:19:02;39.40;;;17.52;;
27558;SDS011;15002;52.028;5.670;2022-10-31T15:21:29;36.72;;;18.70;;
27558;SDS011;15002;52.028;5.670;2022-10-31T15:23:57;34.97;;;17.50;;
27558;SDS011;15002;52.028;5.670;2022-10-31T15:26:29;35.60;;;17.77;;
27558;SDS011;15002;52.028;5.670;2022-10-31T15:29:16;31.95;;;18.23;;
27558;SDS011;15002;52.028;5.670;2022-10-31T15:31:57;35.10;;;16.90;;
27558;SDS011;15002;52.028;5.670;2022-10-31T15:34:44;33.92;;;17.20;;
27558;SDS011;15002;52.028;5.670;2022-10-31T15:37:13;36.58;;;16.55;;
27558;SDS011;15002;52.028;5.670;2022-10-31T15:39:41;32.47;;;17.13;;
27558;SDS011;15002;52.028;5.670;2022-10-31T15:42:18;32.50;;;18.13;;
27558;SDS011;15002;52.028;5.670;2022-10-31T15:47:39;34.78;;;16.55;;
27558;SDS011;15002;52.028;5.670;2022-10-31T15:50:27;33.25;;;17.63;;
27558;SDS011;15002;52.028;5.670;2022-10-31T15:52:59;33.45;;;16.17;;
27558;SDS011;15002;52.028;5.670;2022-10-31T15:55:27;31.40;;;17.33;;
27558;SDS011;15002;52.028;5.670;2022-10-31T15:57:58;31.90;;;18.08;;
27558;SDS011;15002;52.028;5.670;2022-10-31T16:00:36;31.88;;;16.95;;
27558;SDS011;15002;52.028;5.670;2022-10-31T16:03:07;35.22;;;17.75;;
27558;SDS011;15002;52.028;5.670;2022-10-31T16:08:26;41.08;;;17.88;;
27558;SDS011;15002;52.028;5.670;2022-10-31T16:13:53;34.65;;;17.15;;
27558;SDS011;15002;52.028;5.670;2022-10-31T16:16:44;36.80;;;17.63;;
27558;SDS011;15002;52.028;5.670;2022-10-31T16:19:20;35.13;;;17.98;;
27558;SDS011;15002;52.028;5.670;2022-10-31T16:22:40;36.13;;;17.98;;
27558;SDS011;15002;52.028;5.670;2022-10-31T16:25:00;33.33;;;18.00;;
27558;SDS011;15002;52.028;5.670;2022-10-31T16:27:31;36.97;;;18.67;;
27558;SDS011;15002;52.028;5.670;2022-10-31T16:29:59;36.47;;;19.40;;
27558;SDS011;15002;52.028;5.670;2022-10-31T16:32:32;33.78;;;18.75;;
27558;SDS011;15002;52.028;5.670;2022-10-31T16:35:24;38.28;;;19.30;;
27558;SDS011;15002;52.028;5.670;2022-10-31T16:37:51;45.10;;;19.13;;
27558;SDS011;15002;52.028;5.670;2022-10-31T16:40:18;37.83;;;19.35;;
27558;SDS011;15002;52.028;5.670;2022-10-31T16:42:44;37.53;;;20.10;;
27558;SDS011;15002;52.028;5.670;2022-10-31T16:45:19;38.83;;;19.38;;
27558;SDS011;15002;52.028;5.670;2022-10-31T16:47:47;36.70;;;18.98;;
27558;SDS011;15002;52.028;5.670;2022-10-31T16:50:14;36.67;;;18.00;;
27558;SDS011;15002;52.028;5.670;2022-10-31T16:52:45;37.30;;;18.60;;
27558;SDS011;15002;52.028;5.670;2022-10-31T16:55:15;37.45;;;19.75;;
27558;SDS011;15002;52.028;5.670;2022-10-31T16:57:45;40.72;;;19.73;;
27558;SDS011;15002;52.028;5.670;2022-10-31T17:00:14;42.17;;;19.65;;
27558;SDS011;15002;52.028;5.670;2022-10-31T17:02:42;50.28;;;21.17;;
27558;SDS011;15002;52.028;5.670;2022-10-31T17:05:12;39.28;;;19.92;;
27558;SDS011;15002;52.028;5.670;2022-10-31T17:07:40;39.72;;;19.92;;
27558;SDS011;15002;52.028;5.670;2022-10-31T17:10:06;37.85;;;19.33;;
27558;SDS011;15002;52.028;5.670;2022-10-31T17:12:33;39.63;;;18.67;;
27558;SDS011;15002;52.028;5.670;2022-10-31T17:14:58;34.88;;;18.75;;
27558;SDS011;15002;52.028;5.670;2022-10-31T17:17:25;33.65;;;18.90;;
27558;SDS011;15002;52.028;5.670;2022-10-31T17:19:50;38.10;;;19.80;;
27558;SDS011;15002;52.028;5.670;2022-10-31T17:22:16;33.83;;;18.23;;
27558;SDS011;15002;52.028;5.670;2022-10-31T17:24:42;37.75;;;19.45;;
27558;SDS011;15002;52.028;5.670;2022-10-31T17:27:07;39.58;;;20.05;;
27558;SDS011;15002;52.028;5.670;2022-10-31T17:29:33;36.13;;;18.80;;
27558;SDS011;15002;52.028;5.670;2022-10-31T17:31:59;41.13;;;20.38;;
27558;SDS011;15002;52.028;5.670;2022-10-31T17:34:25;37.67;;;19.33;;
27558;SDS011;15002;52.028;5.670;2022-10-31T17:36:51;37.17;;;19.02;;
27558;SDS011;15002;52.028;5.670;2022-10-31T17:39:18;40.00;;;19.75;;
27558;SDS011;15002;52.028;5.670;2022-10-31T17:41:44;37.42;;;18.80;;
27558;SDS011;15002;52.028;5.670;2022-10-31T17:44:10;35.47;;;17.67;;
27558;SDS011;15002;52.028;5.670;2022-10-31T17:46:36;33.45;;;18.13;;
27558;SDS011;15002;52.028;5.670;2022-10-31T17:49:03;36.92;;;18.85;;
27558;SDS011;15002;52.028;5.670;2022-10-31T17:51:31;37.20;;;19.80;;
27558;SDS011;15002;52.028;5.670;2022-10-31T17:53:57;40.88;;;19.67;;